createdAt,value
2023-03-22T00:01:58.336Z,88.22
2023-03-22T00:07:00.427Z,88.39
2023-03-22T00:12:02.388Z,88.54
2023-03-22T00:17:04.166Z,88.79
2023-03-22T00:22:06.310Z,88.94
2023-03-22T00:27:08.535Z,89.05
2023-03-22T00:32:10.410Z,89.03
2023-03-22T00:37:12.184Z,89.03
2023-03-22T00:42:14.382Z,89.09
2023-03-22T00:47:16.142Z,89.16
2023-03-22T00:52:17.920Z,89.38
2023-03-22T00:57:20.209Z,89.32
2023-03-22T01:02:29.579Z,89.38
2023-03-22T01:07:32.771Z,90.16
2023-03-22T01:12:34.535Z,91.35
2023-03-22T01:17:36.155Z,91.70
2023-03-22T01:22:39.279Z,92.14
2023-03-22T01:27:41.090Z,92.07
2023-03-22T01:32:42.860Z,92.80
2023-03-22T01:37:45.352Z,93.29
2023-03-22T01:42:47.342Z,93.61
2023-03-22T01:47:57.424Z,93.63
2023-03-22T01:53:04.511Z,93.66
2023-03-22T01:58:06.587Z,93.66
2023-03-22T02:03:09.904Z,93.44
2023-03-22T02:08:14.433Z,93.29
2023-03-22T02:13:38.535Z,93.15
2023-03-22T02:18:55.568Z,93.01
2023-03-22T02:24:00.416Z,92.45
2023-03-22T02:29:32.598Z,91.95
2023-03-22T02:35:12.059Z,91.61
2023-03-22T02:40:24.735Z,91.38
2023-03-22T02:45:53.799Z,91.33
2023-03-22T02:51:05.198Z,91.16
2023-03-22T02:56:52.272Z,91.05
2023-03-22T03:01:59.779Z,91.17
2023-03-22T03:07:06.589Z,91.19
2023-03-22T03:12:23.977Z,91.04
2023-03-22T03:17:37.530Z,90.71
2023-03-22T03:23:04.490Z,90.66
2023-03-22T03:28:47.025Z,90.69
2023-03-22T03:34:21.370Z,90.44
2023-03-22T03:39:27.877Z,90.18
2023-03-22T03:44:32.289Z,89.69
2023-03-22T03:49:35.492Z,89.34
2023-03-22T03:54:37.272Z,88.54
2023-03-22T03:59:38.947Z,88.71
2023-03-22T04:04:40.769Z,89.44
2023-03-22T04:09:42.690Z,90.41
2023-03-22T04:14:44.481Z,90.61
2023-03-22T04:19:46.049Z,90.20
2023-03-22T04:24:49.759Z,89.94
2023-03-22T04:29:51.835Z,90.31
2023-03-22T04:34:53.608Z,90.26
2023-03-22T04:39:55.485Z,90.17
2023-03-22T04:44:57.467Z,89.46
2023-03-22T04:49:59.263Z,88.90
2023-03-22T04:55:01.025Z,88.22
2023-03-22T05:00:08.510Z,88.08
2023-03-22T05:05:11.022Z,87.38
2023-03-22T05:10:12.892Z,87.57
2023-03-22T05:15:15.003Z,87.35
2023-03-22T05:20:17.361Z,87.35
2023-03-22T05:25:19.339Z,87.88
2023-03-22T05:30:21.657Z,87.20
2023-03-22T05:35:24.072Z,86.71
2023-03-22T05:40:26.590Z,86.40
2023-03-22T05:45:28.803Z,85.45
2023-03-22T05:50:32.125Z,84.93
2023-03-22T05:55:35.111Z,85.64
2023-03-22T06:00:38.204Z,85.76
2023-03-22T06:05:40.606Z,85.37
2023-03-22T06:10:42.812Z,84.86
2023-03-22T06:15:46.202Z,84.92
2023-03-22T06:20:47.979Z,84.25
2023-03-22T06:25:49.864Z,84.33
2023-03-22T06:30:51.766Z,84.28
2023-03-22T06:35:53.656Z,84.83
2023-03-22T06:40:56.500Z,84.74
2023-03-22T06:45:58.625Z,84.73
2023-03-22T06:51:01.175Z,84.64
2023-03-22T06:56:03.506Z,85.33
2023-03-22T07:01:05.999Z,85.48
2023-03-22T07:06:08.870Z,85.41
2023-03-22T07:11:10.837Z,85.48
2023-03-22T07:16:12.947Z,85.60
2023-03-22T07:21:15.201Z,85.99
2023-03-22T07:26:16.974Z,86.28
2023-03-22T07:31:19.054Z,86.51
2023-03-22T07:36:23.597Z,86.88
2023-03-22T07:41:26.717Z,86.49
2023-03-22T07:46:28.409Z,86.39
2023-03-22T07:51:31.084Z,86.64
2023-03-22T07:56:32.957Z,86.26
2023-03-22T08:01:35.075Z,86.31
2023-03-22T08:06:37.845Z,87.08
2023-03-22T08:11:40.025Z,86.73
2023-03-22T08:16:43.817Z,86.92
2023-03-22T08:21:46.048Z,87.43
2023-03-22T08:26:50.592Z,85.72
2023-03-22T08:31:52.769Z,85.64
2023-03-22T08:36:55.651Z,85.74
2023-03-22T08:41:58.148Z,86.60
2023-03-22T08:47:01.663Z,87.03
2023-03-22T08:52:07.013Z,86.41
2023-03-22T08:57:11.659Z,86.03
2023-03-22T09:02:14.102Z,86.42
2023-03-22T09:07:17.151Z,85.89
2023-03-22T09:12:18.928Z,85.49
2023-03-22T09:17:22.452Z,85.81
2023-03-22T09:22:24.829Z,85.46
2023-03-22T09:27:27.527Z,85.51
2023-03-22T09:32:29.217Z,85.75
2023-03-22T09:37:31.195Z,85.70
2023-03-22T09:42:46.268Z,85.73
2023-03-22T09:47:52.356Z,85.72
2023-03-22T09:52:54.750Z,85.50
2023-03-22T09:58:07.367Z,84.91
2023-03-22T10:03:21.010Z,84.88
2023-03-22T10:08:41.122Z,84.82
2023-03-22T10:14:20.773Z,84.97
2023-03-22T10:19:29.316Z,84.96
2023-03-22T10:24:33.541Z,84.53
2023-03-22T10:29:41.464Z,84.52
2023-03-22T10:34:44.053Z,84.49
2023-03-22T10:39:52.340Z,84.56
2023-03-22T10:45:05.025Z,84.28
2023-03-22T10:50:39.066Z,84.23
2023-03-22T10:55:43.935Z,84.29
2023-03-22T11:01:11.320Z,84.24
2023-03-22T11:06:20.522Z,83.98
2023-03-22T11:11:27.306Z,83.99
2023-03-22T11:16:31.381Z,83.94
2023-03-22T11:21:34.038Z,83.85
2023-03-22T11:26:40.705Z,84.07
2023-03-22T11:31:54.230Z,83.95
2023-03-22T11:37:01.277Z,84.32
2023-03-22T11:42:06.240Z,84.00
2023-03-22T11:47:11.781Z,84.33
2023-03-22T11:52:26.249Z,84.44
2023-03-22T11:57:35.604Z,84.42
2023-03-22T12:02:48.349Z,84.13
2023-03-22T12:08:13.747Z,84.45
2023-03-22T12:13:43.709Z,84.50
2023-03-22T12:18:51.104Z,84.37
2023-03-22T12:23:58.514Z,84.49
2023-03-22T12:29:15.746Z,84.26
2023-03-22T12:34:21.712Z,84.17
2023-03-22T12:39:34.665Z,84.44
2023-03-22T12:44:44.927Z,84.48
2023-03-22T12:50:11.695Z,84.25
2023-03-22T12:55:35.802Z,83.88
2023-03-22T13:00:47.533Z,83.70
2023-03-22T13:06:01.459Z,83.75
2023-03-22T13:11:04.832Z,83.44
2023-03-22T13:16:10.354Z,83.44
2023-03-22T13:21:14.197Z,83.40
2023-03-22T13:26:17.264Z,82.92
2023-03-22T13:31:41.502Z,82.96
2023-03-22T13:36:55.931Z,82.71
2023-03-22T13:42:36.306Z,83.11
2023-03-22T13:47:46.414Z,83.02
2023-03-22T13:52:59.312Z,83.85
2023-03-22T13:58:02.518Z,84.16
2023-03-22T14:03:13.183Z,84.52
2023-03-22T14:08:25.236Z,84.00
2023-03-22T14:13:42.143Z,83.87
2023-03-22T14:18:47.311Z,83.49
